Time;durP1;ratioP1;P1;durP2;ratioP2;P2;SDS_P1;SDS_P2;PMS_P1;PMS_P2;Temp;Humidity;BMP_temperature;BMP_pressure;BME280_temperature;BME280_humidity;BME280_pressure;Samples;Min_cycle;Max_cycle;Signal;HPM_P1;HPM_P2
2024/01/07 00:00:28;;;;;;;23.27;10.23;;;;;;;;;;5058437;28;20017;-58
2024/01/07 00:02:53;;;;;;;23.67;10.63;;;;;;;;;;5070227;28;20751;-58
2024/01/07 00:05:18;;;;;;;26.05;10.45;;;;;;;;;;5060623;28;20027;-59
2024/01/07 00:07:43;;;;;;;25.23;10.43;;;;;;;;;;5064833;28;20251;-59
2024/01/07 00:10:09;;;;;;;22.70;9.60;;;;;;;;;;5053875;28;20025;-58
2024/01/07 00:12:35;;;;;;;27.52;11.10;;;;;;;;;;5069919;28;20487;-58
2024/01/07 00:15:00;;;;;;;23.38;9.50;;;;;;;;;;5068996;28;20020;-59
2024/01/07 00:17:25;;;;;;;26.17;11.17;;;;;;;;;;5063716;28;20074;-59
2024/01/07 00:19:50;;;;;;;26.70;11.43;;;;;;;;;;5067193;28;20051;-58
2024/01/07 00:22:15;;;;;;;23.75;10.45;;;;;;;;;;5068487;28;20070;-58
2024/01/07 00:24:41;;;;;;;27.73;10.47;;;;;;;;;;5069024;28;20047;-57
2024/01/07 00:27:08;;;;;;;24.73;11.13;;;;;;;;;;5065571;28;20083;-58
2024/01/07 00:29:34;;;;;;;28.60;11.45;;;;;;;;;;5057491;28;20495;-58
2024/01/07 00:32:00;;;;;;;28.08;11.02;;;;;;;;;;5068347;28;20021;-59
2024/01/07 00:34:25;;;;;;;28.85;11.55;;;;;;;;;;5064054;28;20104;-57
2024/01/07 00:36:50;;;;;;;27.77;11.20;;;;;;;;;;5050231;28;20029;-58
2024/01/07 00:39:15;;;;;;;30.85;11.23;;;;;;;;;;5056808;28;20024;-58
2024/01/07 00:41:40;;;;;;;29.63;11.27;;;;;;;;;;5069079;28;20029;-58
2024/01/07 00:44:05;;;;;;;27.67;10.93;;;;;;;;;;5072667;28;20587;-58
2024/01/07 00:46:30;;;;;;;23.40;10.57;;;;;;;;;;5074182;28;20040;-58
2024/01/07 00:48:55;;;;;;;26.98;11.00;;;;;;;;;;5065988;28;20154;-58
2024/01/07 00:51:21;;;;;;;28.27;11.43;;;;;;;;;;5073757;28;20404;-59
2024/01/07 00:53:46;;;;;;;25.95;10.70;;;;;;;;;;5072128;28;20048;-58
2024/01/07 00:56:11;;;;;;;25.10;10.37;;;;;;;;;;5074321;28;20021;-58
2024/01/07 00:58:36;;;;;;;23.85;10.52;;;;;;;;;;5059465;28;20027;-58
2024/01/07 01:01:01;;;;;;;22.57;10.20;;;;;;;;;;5068983;28;20075;-58
2024/01/07 01:03:26;;;;;;;23.13;10.23;;;;;;;;;;5062426;28;20056;-59
2024/01/07 01:05:52;;;;;;;29.17;10.65;;;;;;;;;;5068775;28;20154;-58
2024/01/07 01:08:17;;;;;;;25.08;9.85;;;;;;;;;;5061229;28;20036;-58
2024/01/07 01:10:42;;;;;;;25.47;10.07;;;;;;;;;;5069962;28;20035;-58
2024/01/07 01:13:07;;;;;;;26.57;9.90;;;;;;;;;;5074534;28;20074;-59
2024/01/07 01:15:32;;;;;;;22.23;9.65;;;;;;;;;;5074770;28;20029;-58
2024/01/07 01:17:58;;;;;;;26.25;11.55;;;;;;;;;;5058684;28;20139;-58
2024/01/07 01:20:23;;;;;;;26.10;9.43;;;;;;;;;;5065792;28;20064;-59
2024/01/07 01:22:48;;;;;;;20.83;8.53;;;;;;;;;;5071913;28;20511;-57
2024/01/07 01:25:13;;;;;;;23.30;9.73;;;;;;;;;;5063199;28;20024;-59
2024/01/07 01:27:39;;;;;;;22.13;8.80;;;;;;;;;;5071606;28;20021;-58
2024/01/07 01:30:04;;;;;;;27.07;9.83;;;;;;;;;;5062295;28;20439;-59
2024/01/07 01:32:29;;;;;;;25.23;9.95;;;;;;;;;;5072782;28;20024;-59
2024/01/07 01:34:54;;;;;;;27.77;10.02;;;;;;;;;;5073821;28;20395;-57
2024/01/07 01:37:19;;;;;;;26.67;10.27;;;;;;;;;;5066248;28;20033;-57
2024/01/07 01:39:44;;;;;;;23.45;9.63;;;;;;;;;;5069409;28;20029;-58
2024/01/07 01:42:10;;;;;;;23.90;10.57;;;;;;;;;;5067504;28;20391;-59
2024/01/07 01:44:36;;;;;;;23.65;9.18;;;;;;;;;;5073229;28;20028;-57
2024/01/07 01:47:01;;;;;;;25.50;9.68;;;;;;;;;;5069067;28;20048;-58
2024/01/07 01:49:27;;;;;;;26.63;10.33;;;;;;;;;;5054665;28;20449;-57
2024/01/07 01:51:52;;;;;;;26.25;9.88;;;;;;;;;;5057904;28;20059;-59
2024/01/07 01:54:18;;;;;;;24.98;10.73;;;;;;;;;;5059334;28;20020;-59
2024/01/07 01:56:43;;;;;;;25.40;10.67;;;;;;;;;;5065986;28;20066;-59
2024/01/07 01:59:08;;;;;;;26.20;10.85;;;;;;;;;;5054060;28;20029;-58
2024/01/07 02:01:34;;;;;;;26.38;10.50;;;;;;;;;;5056286;28;20054;-57
2024/01/07 02:03:59;;;;;;;27.47;10.30;;;;;;;;;;5061259;28;20504;-59
2024/01/07 02:06:24;;;;;;;27.40;11.47;;;;;;;;;;5067262;28;20364;-58
2024/01/07 02:08:50;;;;;;;26.23;9.75;;;;;;;;;;5068514;28;20027;-58
2024/01/07 02:11:24;;;;;;;24.33;9.27;;;;;;;;;;5070688;28;20054;-58
2024/01/07 02:13:49;;;;;;;22.42;9.82;;;;;;;;;;5072130;28;20017;-58
2024/01/07 02:16:14;;;;;;;21.90;9.37;;;;;;;;;;5072580;28;20028;-58
2024/01/07 02:18:40;;;;;;;23.88;9.10;;;;;;;;;;5063509;28;20025;-58
2024/01/07 02:21:06;;;;;;;20.73;8.70;;;;;;;;;;5071923;28;20053;-59
2024/01/07 02:23:31;;;;;;;23.30;9.30;;;;;;;;;;5071696;28;20411;-58
2024/01/07 02:25:57;;;;;;;18.90;7.82;;;;;;;;;;5068484;28;20031;-58
2024/01/07 02:28:22;;;;;;;24.98;8.80;;;;;;;;;;5066755;28;20033;-58
2024/01/07 02:30:47;;;;;;;20.60;8.10;;;;;;;;;;5072195;28;20028;-58
2024/01/07 02:33:13;;;;;;;21.77;8.93;;;;;;;;;;5072230;28;20029;-58
2024/01/07 02:35:39;;;;;;;22.17;8.90;;;;;;;;;;5072079;28;20013;-58
2024/01/07 02:38:04;;;;;;;22.20;8.27;;;;;;;;;;5071313;28;20036;-58
2024/01/07 02:40:29;;;;;;;21.93;8.60;;;;;;;;;;5070191;28;20451;-58
2024/01/07 02:42:56;;;;;;;23.38;8.40;;;;;;;;;;5068445;28;20067;-57
2024/01/07 02:45:21;;;;;;;25.63;9.70;;;;;;;;;;5071742;28;20031;-58
2024/01/07 02:47:46;;;;;;;20.58;8.90;;;;;;;;;;5063039;28;20025;-58
2024/01/07 02:50:12;;;;;;;21.37;8.87;;;;;;;;;;5064225;28;20049;-58
2024/01/07 02:52:37;;;;;;;22.75;9.20;;;;;;;;;;5071192;28;20530;-59
2024/01/07 02:55:02;;;;;;;20.55;8.27;;;;;;;;;;5052712;28;20457;-58
2024/01/07 02:57:27;;;;;;;23.88;8.63;;;;;;;;;;5057198;28;20097;-59
2024/01/07 02:59:53;;;;;;;23.30;10.02;;;;;;;;;;5069644;28;20708;-59
2024/01/07 03:02:18;;;;;;;22.80;9.20;;;;;;;;;;5071007;28;20036;-58
2024/01/07 03:04:43;;;;;;;19.92;8.43;;;;;;;;;;5071165;28;20024;-58
2024/01/07 03:07:08;;;;;;;23.03;9.37;;;;;;;;;;5067577;28;20043;-58
2024/01/07 03:09:34;;;;;;;21.05;8.77;;;;;;;;;;5051219;28;20033;-59
2024/01/07 03:11:59;;;;;;;23.77;8.87;;;;;;;;;;5051127;28;20025;-58
2024/01/07 03:14:24;;;;;;;20.70;7.97;;;;;;;;;;5059895;28;20450;-57
2024/01/07 03:16:49;;;;;;;21.90;8.47;;;;;;;;;;5062788;28;20039;-57
2024/01/07 03:19:15;;;;;;;21.83;8.88;;;;;;;;;;5061041;28;20476;-58
2024/01/07 03:21:40;;;;;;;22.33;7.90;;;;;;;;;;5063137;28;20032;-59
2024/01/07 03:24:05;;;;;;;20.15;8.35;;;;;;;;;;5069097;28;20033;-58
2024/01/07 03:26:33;;;;;;;20.47;8.10;;;;;;;;;;5071164;28;20082;-57
2024/01/07 03:29:02;;;;;;;22.83;8.60;;;;;;;;;;5070778;28;20021;-58
2024/01/07 03:31:27;;;;;;;21.85;8.25;;;;;;;;;;5064851;28;20021;-58
2024/01/07 03:33:52;;;;;;;22.53;8.50;;;;;;;;;;5068274;28;20468;-58
2024/01/07 03:36:17;;;;;;;17.83;8.25;;;;;;;;;;5068948;28;20021;-58
2024/01/07 03:38:42;;;;;;;18.48;7.40;;;;;;;;;;5071033;28;20024;-57
2024/01/07 03:41:08;;;;;;;20.53;8.13;;;;;;;;;;5070841;28;20094;-59
2024/01/07 03:43:33;;;;;;;20.35;6.95;;;;;;;;;;5070051;28;20025;-58
2024/01/07 03:45:58;;;;;;;20.17;7.80;;;;;;;;;;5070778;28;20419;-59
2024/01/07 03:48:23;;;;;;;19.90;7.25;;;;;;;;;;5065307;28;20481;-58
2024/01/07 03:50:49;;;;;;;22.57;9.00;;;;;;;;;;5070537;28;20399;-58
2024/01/07 03:53:14;;;;;;;16.95;7.43;;;;;;;;;;5068256;28;20032;-59
2024/01/07 03:55:39;;;;;;;24.77;8.32;;;;;;;;;;5070902;28;20021;-59
2024/01/07 03:58:05;;;;;;;21.67;8.23;;;;;;;;;;5070808;28;20066;-59
2024/01/07 04:00:30;;;;;;;21.20;8.60;;;;;;;;;;5070636;28;20063;-59
2024/01/07 04:02:56;;;;;;;20.27;7.53;;;;;;;;;;5067762;28;20025;-59
2024/01/07 04:05:21;;;;;;;20.83;8.35;;;;;;;;;;5061230;28;20048;-58
2024/01/07 04:07:46;;;;;;;20.40;7.80;;;;;;;;;;5070611;28;20384;-59
2024/01/07 04:10:11;;;;;;;19.35;7.40;;;;;;;;;;5070999;28;20380;-58
2024/01/07 04:12:36;;;;;;;18.65;7.75;;;;;;;;;;5070629;28;20044;-59
2024/01/07 04:15:02;;;;;;;19.30;8.95;;;;;;;;;;5057944;28;20377;-59
2024/01/07 04:17:28;;;;;;;19.77;7.97;;;;;;;;;;5051584;28;20096;-58
2024/01/07 04:19:54;;;;;;;19.02;7.93;;;;;;;;;;5062835;28;20115;-58
2024/01/07 04:22:19;;;;;;;21.83;8.82;;;;;;;;;;5069548;28;20047;-59
2024/01/07 04:24:44;;;;;;;21.73;8.07;;;;;;;;;;5072051;28;20085;-58
2024/01/07 04:27:09;;;;;;;21.73;9.00;;;;;;;;;;5069367;28;20025;-59
2024/01/07 04:29:35;;;;;;;19.53;7.73;;;;;;;;;;5075491;28;20015;-58
2024/01/07 04:32:00;;;;;;;20.08;7.45;;;;;;;;;;5066930;28;20028;-58
2024/01/07 04:34:25;;;;;;;19.23;8.37;;;;;;;;;;5061877;28;20384;-59
2024/01/07 04:36:50;;;;;;;21.23;8.95;;;;;;;;;;5067204;28;20029;-58
2024/01/07 04:39:16;;;;;;;18.87;7.87;;;;;;;;;;5068972;28;20028;-58
2024/01/07 04:41:41;;;;;;;20.95;7.97;;;;;;;;;;5056062;28;20268;-58
2024/01/07 04:44:06;;;;;;;20.00;7.80;;;;;;;;;;5050093;28;20028;-59
2024/01/07 04:46:34;;;;;;;17.98;7.78;;;;;;;;;;5050328;28;20021;-58
2024/01/07 04:48:59;;;;;;;22.40;7.88;;;;;;;;;;5051468;28;20980;-58
2024/01/07 04:51:24;;;;;;;15.45;6.80;;;;;;;;;;5049898;28;20029;-57
2024/01/07 04:53:49;;;;;;;20.25;7.50;;;;;;;;;;5062109;28;20427;-58
2024/01/07 04:56:14;;;;;;;20.47;7.60;;;;;;;;;;5068508;28;20048;-57
2024/01/07 04:58:39;;;;;;;18.90;6.90;;;;;;;;;;5069538;28;20404;-58
2024/01/07 05:01:05;;;;;;;18.58;7.80;;;;;;;;;;5067607;28;20024;-58
2024/01/07 05:03:30;;;;;;;19.67;7.63;;;;;;;;;;5069023;28;20021;-59
2024/01/07 05:05:55;;;;;;;16.90;7.27;;;;;;;;;;5070105;28;20418;-58
2024/01/07 05:08:20;;;;;;;18.20;7.47;;;;;;;;;;5061367;28;20017;-59
2024/01/07 05:10:47;;;;;;;18.92;7.88;;;;;;;;;;5069790;28;20020;-59
2024/01/07 05:13:12;;;;;;;18.55;6.75;;;;;;;;;;5055966;28;20036;-58
2024/01/07 05:15:37;;;;;;;17.17;7.13;;;;;;;;;;5066768;28;20094;-58
2024/01/07 05:18:06;;;;;;;17.70;7.10;;;;;;;;;;5049914;28;20040;-58
2024/01/07 05:20:31;;;;;;;18.35;7.45;;;;;;;;;;5052713;28;20029;-59
2024/01/07 05:22:57;;;;;;;18.25;7.00;;;;;;;;;;5063380;28;20040;-58
2024/01/07 05:25:22;;;;;;;16.27;6.67;;;;;;;;;;5069895;28;20645;-57
2024/01/07 05:27:47;;;;;;;17.70;7.00;;;;;;;;;;5070246;28;20032;-59
2024/01/07 05:30:12;;;;;;;18.55;6.97;;;;;;;;;;5070213;28;20033;-58
2024/01/07 05:32:37;;;;;;;16.83;6.33;;;;;;;;;;5052942;28;20020;-59
2024/01/07 05:35:02;;;;;;;15.38;6.15;;;;;;;;;;5065190;28;20021;-59
2024/01/07 05:37:28;;;;;;;14.57;6.10;;;;;;;;;;5073492;28;20419;-59
2024/01/07 05:39:54;;;;;;;18.10;6.85;;;;;;;;;;5062119;28;20138;-58
2024/01/07 05:42:19;;;;;;;16.75;6.50;;;;;;;;;;5067686;28;20043;-59
2024/01/07 05:44:44;;;;;;;17.00;6.63;;;;;;;;;;5063864;28;20036;-58
2024/01/07 05:47:10;;;;;;;19.02;6.50;;;;;;;;;;5073219;28;20043;-58
2024/01/07 05:49:35;;;;;;;20.35;7.05;;;;;;;;;;5073009;28;20385;-58
2024/01/07 05:52:00;;;;;;;18.02;6.78;;;;;;;;;;5067312;28;20055;-58
2024/01/07 05:54:25;;;;;;;17.50;7.15;;;;;;;;;;5071720;28;20128;-59
2024/01/07 05:56:50;;;;;;;17.70;6.55;;;;;;;;;;5072698;28;20388;-58
2024/01/07 05:59:16;;;;;;;18.67;7.50;;;;;;;;;;5073098;28;20117;-59
2024/01/07 06:01:41;;;;;;;13.90;6.00;;;;;;;;;;5071618;28;20028;-59
2024/01/07 06:04:06;;;;;;;13.67;6.40;;;;;;;;;;5057013;28;20409;-59
2024/01/07 06:06:31;;;;;;;15.52;6.47;;;;;;;;;;5052966;28;20508;-59
2024/01/07 06:08:56;;;;;;;17.80;6.43;;;;;;;;;;5061873;28;20107;-59
2024/01/07 06:11:22;;;;;;;14.83;6.10;;;;;;;;;;5063321;28;20393;-56
2024/01/07 06:13:47;;;;;;;13.95;6.03;;;;;;;;;;5052595;28;20033;-57
2024/01/07 06:16:12;;;;;;;14.73;5.72;;;;;;;;;;5052408;28;20025;-56
2024/01/07 06:18:37;;;;;;;14.53;6.80;;;;;;;;;;5052514;28;20381;-57
2024/01/07 06:21:02;;;;;;;13.60;5.70;;;;;;;;;;5058999;28;20093;-57
2024/01/07 06:23:27;;;;;;;13.73;5.60;;;;;;;;;;5070475;28;20051;-57
2024/01/07 06:25:53;;;;;;;13.13;5.77;;;;;;;;;;5061564;28;20028;-58
2024/01/07 06:28:18;;;;;;;14.13;5.43;;;;;;;;;;5065968;28;20017;-58
2024/01/07 06:30:43;;;;;;;13.40;5.47;;;;;;;;;;5070025;28;20420;-56
2024/01/07 06:33:08;;;;;;;10.95;4.80;;;;;;;;;;5071648;28;20064;-58
2024/01/07 06:35:33;;;;;;;12.17;5.53;;;;;;;;;;5070355;28;20043;-57
2024/01/07 06:37:58;;;;;;;12.93;5.30;;;;;;;;;;5072250;28;20043;-56
2024/01/07 06:40:24;;;;;;;14.90;5.03;;;;;;;;;;5061316;28;20039;-57
2024/01/07 06:42:49;;;;;;;13.10;5.30;;;;;;;;;;5062015;28;20017;-57
2024/01/07 06:45:15;;;;;;;12.43;4.90;;;;;;;;;;5075386;28;20027;-59
2024/01/07 06:47:40;;;;;;;14.65;5.10;;;;;;;;;;5079352;28;20028;-57
2024/01/07 06:50:06;;;;;;;12.10;5.10;;;;;;;;;;5079623;28;20081;-59
2024/01/07 06:52:31;;;;;;;12.63;4.88;;;;;;;;;;5068373;28;20454;-59
2024/01/07 06:54:56;;;;;;;13.35;5.90;;;;;;;;;;5071459;28;20062;-59
2024/01/07 06:57:21;;;;;;;10.60;4.07;;;;;;;;;;5071162;28;20081;-60
2024/01/07 06:59:46;;;;;;;12.33;5.00;;;;;;;;;;5073563;28;20036;-58
2024/01/07 07:02:11;;;;;;;10.50;4.38;;;;;;;;;;5068587;28;20029;-59
2024/01/07 07:04:37;;;;;;;12.53;4.20;;;;;;;;;;5071751;28;20755;-57
2024/01/07 07:07:02;;;;;;;8.93;4.10;;;;;;;;;;5053860;28;20038;-57
2024/01/07 07:09:27;;;;;;;10.80;4.30;;;;;;;;;;5070424;28;20388;-58
2024/01/07 07:11:52;;;;;;;9.73;3.80;;;;;;;;;;5062662;28;20020;-58
2024/01/07 07:14:17;;;;;;;10.07;4.40;;;;;;;;;;5070728;28;20771;-57
2024/01/07 07:16:43;;;;;;;12.57;4.22;;;;;;;;;;5064497;28;20504;-58
2024/01/07 07:19:08;;;;;;;9.25;3.65;;;;;;;;;;5072246;28;20040;-57
2024/01/07 07:21:33;;;;;;;11.80;4.30;;;;;;;;;;5076060;28;20019;-56
2024/01/07 07:23:58;;;;;;;10.32;4.03;;;;;;;;;;5075970;28;20020;-57
2024/01/07 07:26:23;;;;;;;9.83;3.93;;;;;;;;;;5076384;28;20115;-57
2024/01/07 07:28:48;;;;;;;9.23;3.90;;;;;;;;;;5067349;28;20033;-57
2024/01/07 07:31:14;;;;;;;9.68;3.58;;;;;;;;;;5074952;28;20220;-56
2024/01/07 07:33:39;;;;;;;11.73;3.97;;;;;;;;;;5074243;28;20023;-57
2024/01/07 07:36:06;;;;;;;8.75;4.05;;;;;;;;;;5056497;28;20436;-58
2024/01/07 07:38:33;;;;;;;9.27;4.03;;;;;;;;;;5066117;28;20043;-56
2024/01/07 07:40:58;;;;;;;9.50;4.03;;;;;;;;;;5064435;28;20020;-59
2024/01/07 07:43:24;;;;;;;11.13;4.05;;;;;;;;;;5065240;28;20476;-56
2024/01/07 07:45:50;;;;;;;9.60;4.43;;;;;;;;;;5065408;28;20103;-57
2024/01/07 07:48:16;;;;;;;9.73;3.70;;;;;;;;;;5069622;28;20537;-57
2024/01/07 07:50:41;;;;;;;10.10;3.47;;;;;;;;;;5060943;28;20044;-58
2024/01/07 07:53:07;;;;;;;9.60;3.30;;;;;;;;;;5064172;28;20080;-58
2024/01/07 07:55:32;;;;;;;8.95;3.30;;;;;;;;;;5059673;28;20033;-59
2024/01/07 07:57:57;;;;;;;8.48;3.80;;;;;;;;;;5061323;28;20053;-58
2024/01/07 08:00:23;;;;;;;7.68;3.30;;;;;;;;;;5058028;28;20032;-57
2024/01/07 08:02:48;;;;;;;8.30;3.17;;;;;;;;;;5061188;28;20373;-56
2024/01/07 08:05:13;;;;;;;8.05;3.00;;;;;;;;;;5056842;28;20016;-58
2024/01/07 08:07:39;;;;;;;8.87;3.10;;;;;;;;;;5061900;28;20105;-57
2024/01/07 08:10:04;;;;;;;8.25;3.08;;;;;;;;;;5066218;28;20017;-58
2024/01/07 08:12:29;;;;;;;8.50;2.90;;;;;;;;;;5062618;28;20033;-57
2024/01/07 08:14:54;;;;;;;10.23;3.45;;;;;;;;;;5064173;28;20033;-57
2024/01/07 08:17:20;;;;;;;8.07;3.20;;;;;;;;;;5060860;28;20027;-57
2024/01/07 08:19:45;;;;;;;7.60;2.90;;;;;;;;;;5056197;28;20122;-56
2024/01/07 08:22:10;;;;;;;8.68;3.28;;;;;;;;;;5057660;28;20009;-58
2024/01/07 08:24:35;;;;;;;7.67;2.90;;;;;;;;;;5063786;28;20119;-56
2024/01/07 08:27:01;;;;;;;7.50;2.93;;;;;;;;;;5065133;28;20473;-58
2024/01/07 08:29:26;;;;;;;8.20;3.20;;;;;;;;;;5055809;28;20449;-57
2024/01/07 08:31:51;;;;;;;7.77;3.10;;;;;;;;;;5057190;28;20028;-56
2024/01/07 08:34:17;;;;;;;7.28;3.10;;;;;;;;;;5055380;28;20081;-57
2024/01/07 08:36:42;;;;;;;9.10;2.83;;;;;;;;;;5071882;28;20032;-59
2024/01/07 08:39:08;;;;;;;9.03;2.83;;;;;;;;;;5061399;28;20517;-58
2024/01/07 08:41:33;;;;;;;6.70;2.50;;;;;;;;;;5067834;28;20078;-59
2024/01/07 08:43:58;;;;;;;8.02;2.65;;;;;;;;;;5069294;28;20096;-59
2024/01/07 08:46:23;;;;;;;6.35;2.40;;;;;;;;;;5054877;28;20049;-58
2024/01/07 08:48:49;;;;;;;6.75;2.40;;;;;;;;;;5061386;28;20032;-58
2024/01/07 08:51:14;;;;;;;6.95;2.20;;;;;;;;;;5053706;28;20029;-59
2024/01/07 08:53:39;;;;;;;6.90;2.30;;;;;;;;;;5068695;28;20048;-59
2024/01/07 08:56:04;;;;;;;6.00;2.25;;;;;;;;;;5078558;28;20027;-59
2024/01/07 08:58:29;;;;;;;9.23;3.20;;;;;;;;;;5066389;28;20060;-59
2024/01/07 09:00:54;;;;;;;6.05;2.20;;;;;;;;;;5050443;28;20017;-59
2024/01/07 09:03:20;;;;;;;6.60;2.37;;;;;;;;;;5071945;28;20017;-59
2024/01/07 09:05:45;;;;;;;5.97;2.10;;;;;;;;;;5075638;28;20082;-58
2024/01/07 09:08:11;;;;;;;6.28;2.20;;;;;;;;;;5076530;28;20047;-59
2024/01/07 09:10:36;;;;;;;6.80;2.22;;;;;;;;;;5075131;28;20013;-58
2024/01/07 09:13:02;;;;;;;6.80;2.25;;;;;;;;;;5075575;28;20025;-59
2024/01/07 09:15:27;;;;;;;6.70;2.30;;;;;;;;;;5075697;28;20016;-58
2024/01/07 09:17:52;;;;;;;9.30;2.28;;;;;;;;;;5063630;28;20548;-59
2024/01/07 09:20:18;;;;;;;7.20;2.40;;;;;;;;;;5071963;28;20040;-58
2024/01/07 09:22:43;;;;;;;10.93;2.33;;;;;;;;;;5071816;28;20029;-59
2024/01/07 09:25:09;;;;;;;7.00;2.47;;;;;;;;;;5074004;28;20431;-57
2024/01/07 09:27:34;;;;;;;8.13;2.90;;;;;;;;;;5064713;28;20393;-57
2024/01/07 09:29:59;;;;;;;5.53;2.20;;;;;;;;;;5068994;28;20021;-57
2024/01/07 09:32:25;;;;;;;6.82;2.40;;;;;;;;;;5065829;28;20056;-57
2024/01/07 09:34:51;;;;;;;8.32;2.47;;;;;;;;;;5073159;28;20203;-57
2024/01/07 09:37:16;;;;;;;8.03;2.50;;;;;;;;;;5073203;28;20066;-58
2024/01/07 09:39:41;;;;;;;8.10;1.95;;;;;;;;;;5072492;28;20112;-59
2024/01/07 09:42:12;;;;;;;6.17;2.20;;;;;;;;;;5072623;28;20012;-57
2024/01/07 09:44:37;;;;;;;6.32;2.35;;;;;;;;;;5071801;28;20024;-59
2024/01/07 09:47:03;;;;;;;6.47;2.37;;;;;;;;;;5073223;28;20521;-57
2024/01/07 09:49:28;;;;;;;7.28;2.67;;;;;;;;;;5073052;28;20051;-58
2024/01/07 09:51:58;;;;;;;6.10;2.33;;;;;;;;;;5072870;28;20491;-58
2024/01/07 09:54:23;;;;;;;6.78;2.30;;;;;;;;;;5072784;28;20036;-58
2024/01/07 09:56:50;;;;;;;6.30;2.43;;;;;;;;;;5073125;28;20028;-59
2024/01/07 09:59:16;;;;;;;6.20;2.60;;;;;;;;;;5072940;28;20454;-59
2024/01/07 10:01:41;;;;;;;6.57;2.25;;;;;;;;;;5066005;28;20024;-59
2024/01/07 10:04:06;;;;;;;8.13;2.80;;;;;;;;;;5072598;28;20024;-58
2024/01/07 10:06:32;;;;;;;7.55;2.83;;;;;;;;;;5072855;28;20457;-58
2024/01/07 10:08:58;;;;;;;10.40;2.60;;;;;;;;;;5072888;28;20029;-58
2024/01/07 10:11:23;;;;;;;7.22;2.22;;;;;;;;;;5068611;28;20514;-59
2024/01/07 10:13:48;;;;;;;7.33;2.43;;;;;;;;;;5069077;28;20489;-59
2024/01/07 10:16:14;;;;;;;6.40;2.33;;;;;;;;;;5072645;28;20016;-58
2024/01/07 10:18:39;;;;;;;6.60;2.28;;;;;;;;;;5073422;28;20207;-56
2024/01/07 10:21:06;;;;;;;7.83;2.23;;;;;;;;;;5069345;28;20100;-57
2024/01/07 10:23:31;;;;;;;6.75;2.50;;;;;;;;;;5074043;28;20032;-60
2024/01/07 10:25:57;;;;;;;5.70;2.23;;;;;;;;;;5064780;28;20051;-59
2024/01/07 10:28:22;;;;;;;6.20;2.30;;;;;;;;;;5075352;28;20052;-58
2024/01/07 10:30:51;;;;;;;6.77;2.40;;;;;;;;;;5075000;28;20024;-59
2024/01/07 10:33:19;;;;;;;5.43;2.08;;;;;;;;;;5074699;28;20074;-59
2024/01/07 10:35:55;;;;;;;6.65;2.60;;;;;;;;;;5064195;28;20025;-58
2024/01/07 10:38:21;;;;;;;8.88;2.40;;;;;;;;;;5066898;28;20111;-59
2024/01/07 10:40:47;;;;;;;8.98;3.00;;;;;;;;;;5068385;28;20453;-59
2024/01/07 10:43:15;;;;;;;6.13;2.08;;;;;;;;;;5072606;28;20104;-57
2024/01/07 10:45:40;;;;;;;7.65;2.83;;;;;;;;;;5056579;28;20032;-58
2024/01/07 10:48:07;;;;;;;6.17;2.10;;;;;;;;;;5052432;28;20021;-59
2024/01/07 10:50:32;;;;;;;9.68;2.40;;;;;;;;;;5068932;28;20025;-58
2024/01/07 10:53:02;;;;;;;7.07;2.65;;;;;;;;;;5067493;28;20043;-56
2024/01/07 10:55:33;;;;;;;5.75;2.13;;;;;;;;;;5071904;28;20029;-58
2024/01/07 10:57:59;;;;;;;6.15;2.40;;;;;;;;;;5072009;28;20078;-58
2024/01/07 11:00:24;;;;;;;5.88;2.45;;;;;;;;;;5070108;28;20432;-58
2024/01/07 11:03:09;;;;;;;6.27;2.20;;;;;;;;;;5055661;28;20033;-58
2024/01/07 11:05:44;;;;;;;6.32;2.17;;;;;;;;;;5052975;28;20021;-58
2024/01/07 11:08:15;;;;;;;5.53;2.00;;;;;;;;;;5059466;28;20092;-59
2024/01/07 11:10:46;;;;;;;4.80;1.67;;;;;;;;;;5058692;28;20484;-58
2024/01/07 11:13:31;;;;;;;5.95;2.15;;;;;;;;;;5052814;28;20032;-59
2024/01/07 11:15:56;;;;;;;;;;;;;;;;;;5071829;28;20484;-57
2024/01/07 11:18:22;;;;;;;5.05;1.75;;;;;;;;;;5071451;28;19905;-58
2024/01/07 11:20:47;;;;;;;6.03;1.80;;;;;;;;;;5058133;28;20021;-58
2024/01/07 11:23:39;;;;;;;5.30;1.65;;;;;;;;;;5060560;28;20454;-59
2024/01/07 11:26:05;;;;;;;5.40;1.98;;;;;;;;;;5067632;28;20107;-59
2024/01/07 11:28:49;;;;;;;5.73;1.80;;;;;;;;;;5070955;28;20177;-58
2024/01/07 11:31:15;;;;;;;5.72;1.77;;;;;;;;;;5058197;28;20627;-59
2024/01/07 11:33:45;;;;;;;5.45;1.90;;;;;;;;;;5059163;28;20048;-58
2024/01/07 11:36:10;;;;;;;7.75;2.60;;;;;;;;;;5059361;28;20494;-58
2024/01/07 11:38:38;;;;;;;5.72;1.65;;;;;;;;;;5062764;28;20094;-59
2024/01/07 11:41:05;;;;;;;5.35;1.77;;;;;;;;;;5066904;28;20016;-58
2024/01/07 11:43:30;;;;;;;6.30;1.85;;;;;;;;;;5069052;28;20023;-57
2024/01/07 11:45:55;;;;;;;6.37;1.63;;;;;;;;;;5058080;28;20017;-58
2024/01/07 11:48:20;;;;;;;4.60;1.60;;;;;;;;;;5062489;28;20472;-58
2024/01/07 11:50:45;;;;;;;4.50;1.50;;;;;;;;;;5064667;28;20040;-58
2024/01/07 11:53:11;;;;;;;4.70;1.60;;;;;;;;;;5060993;28;20025;-58
2024/01/07 11:55:36;;;;;;;4.65;1.58;;;;;;;;;;5058874;28;20108;-58
2024/01/07 11:58:02;;;;;;;5.23;1.57;;;;;;;;;;5066402;28;20074;-58
2024/01/07 12:00:30;;;;;;;5.85;1.65;;;;;;;;;;5059730;28;20039;-58
2024/01/07 12:02:55;;;;;;;4.80;1.80;;;;;;;;;;5051636;28;20098;-59
2024/01/07 12:05:20;;;;;;;5.33;1.50;;;;;;;;;;5062703;28;20009;-59
2024/01/07 12:07:46;;;;;;;6.38;1.90;;;;;;;;;;5059034;28;20029;-58
2024/01/07 12:10:11;;;;;;;6.00;1.88;;;;;;;;;;5071505;28;20064;-57
2024/01/07 12:12:37;;;;;;;5.05;1.52;;;;;;;;;;5067252;28;20650;-57
2024/01/07 12:15:04;;;;;;;4.53;1.50;;;;;;;;;;5081038;28;20044;-58
2024/01/07 12:17:29;;;;;;;6.25;1.83;;;;;;;;;;5083752;28;20058;-58
2024/01/07 12:19:56;;;;;;;6.00;1.92;;;;;;;;;;5070252;28;20037;-57
2024/01/07 12:22:21;;;;;;;5.75;1.90;;;;;;;;;;5066116;28;20073;-58
2024/01/07 12:24:46;;;;;;;5.20;1.75;;;;;;;;;;5047124;28;20094;-58
2024/01/07 12:27:14;;;;;;;5.33;1.73;;;;;;;;;;5061837;28;21409;-58
2024/01/07 12:29:39;;;;;;;6.65;1.90;;;;;;;;;;5053029;28;20025;-57
2024/01/07 12:32:05;;;;;;;5.43;1.93;;;;;;;;;;5046792;28;20028;-59
2024/01/07 12:34:30;;;;;;;5.97;2.15;;;;;;;;;;5060788;28;20020;-58
2024/01/07 12:36:55;;;;;;;5.83;2.10;;;;;;;;;;5065041;28;20020;-57
2024/01/07 12:39:20;;;;;;;6.43;1.83;;;;;;;;;;5066548;28;20532;-57
2024/01/07 12:41:47;;;;;;;5.90;1.80;;;;;;;;;;5059813;28;20509;-58
2024/01/07 12:44:12;;;;;;;6.15;1.90;;;;;;;;;;5066966;28;20089;-58
2024/01/07 12:46:37;;;;;;;4.97;1.80;;;;;;;;;;5070607;28;20428;-58
2024/01/07 12:49:02;;;;;;;5.78;1.88;;;;;;;;;;5070439;28;20124;-58
2024/01/07 12:51:27;;;;;;;5.72;2.00;;;;;;;;;;5077096;28;20024;-57
2024/01/07 12:53:52;;;;;;;5.90;1.90;;;;;;;;;;5084693;28;20137;-58
2024/01/07 12:56:18;;;;;;;5.37;1.80;;;;;;;;;;5067000;28;20131;-58
2024/01/07 12:58:43;;;;;;;5.22;1.60;;;;;;;;;;5054853;28;20029;-58
2024/01/07 13:01:08;;;;;;;5.17;1.87;;;;;;;;;;5064577;28;20433;-58
2024/01/07 13:03:33;;;;;;;5.15;1.80;;;;;;;;;;5070327;28;20028;-58
2024/01/07 13:05:58;;;;;;;5.85;1.60;;;;;;;;;;5068871;28;20409;-58
2024/01/07 13:08:25;;;;;;;4.47;1.40;;;;;;;;;;5068965;28;20036;-58
2024/01/07 13:10:51;;;;;;;5.10;1.75;;;;;;;;;;5063729;28;20043;-58
2024/01/07 13:13:17;;;;;;;5.72;1.90;;;;;;;;;;5066269;28;20115;-57
2024/01/07 13:15:42;;;;;;;5.07;1.65;;;;;;;;;;5059433;28;20035;-58
2024/01/07 13:18:07;;;;;;;4.75;1.60;;;;;;;;;;5062372;28;20024;-58
2024/01/07 13:20:35;;;;;;;4.05;1.40;;;;;;;;;;5069771;28;20028;-57
2024/01/07 13:23:00;;;;;;;5.72;1.80;;;;;;;;;;5059926;28;20036;-58
2024/01/07 13:25:25;;;;;;;4.43;1.60;;;;;;;;;;5066607;28;20016;-59
2024/01/07 13:27:51;;;;;;;5.32;1.80;;;;;;;;;;5056932;28;20028;-58
2024/01/07 13:30:16;;;;;;;4.55;1.50;;;;;;;;;;5065988;28;20033;-58
2024/01/07 13:32:41;;;;;;;4.83;1.60;;;;;;;;;;5061168;28;20028;-57
2024/01/07 13:35:10;;;;;;;5.43;1.60;;;;;;;;;;5057988;28;20028;-57
2024/01/07 13:37:36;;;;;;;5.95;1.48;;;;;;;;;;5052165;28;20056;-59
2024/01/07 13:40:01;;;;;;;4.80;1.70;;;;;;;;;;5055004;28;20060;-57
2024/01/07 13:42:26;;;;;;;5.45;1.70;;;;;;;;;;5066267;28;20040;-58
2024/01/07 13:44:51;;;;;;;4.35;1.35;;;;;;;;;;5055678;28;20028;-58
2024/01/07 13:47:17;;;;;;;4.53;1.40;;;;;;;;;;5062613;28;20024;-58
2024/01/07 13:49:43;;;;;;;4.72;1.60;;;;;;;;;;5065005;28;20051;-58
2024/01/07 13:52:08;;;;;;;5.22;1.48;;;;;;;;;;5064184;28;20025;-58
2024/01/07 13:54:33;;;;;;;4.63;1.48;;;;;;;;;;5069466;28;20036;-58
2024/01/07 13:56:59;;;;;;;3.90;1.27;;;;;;;;;;5065102;28;20381;-59
2024/01/07 13:59:24;;;;;;;4.63;1.42;;;;;;;;;;5058119;28;20025;-59
2024/01/07 14:01:50;;;;;;;3.80;1.10;;;;;;;;;;5054139;28;20044;-58
2024/01/07 14:04:15;;;;;;;5.33;1.67;;;;;;;;;;5058410;28;20031;-58
2024/01/07 14:06:40;;;;;;;3.90;1.30;;;;;;;;;;5067329;28;20029;-59
2024/01/07 14:09:08;;;;;;;4.87;1.43;;;;;;;;;;5062824;28;20439;-57
2024/01/07 14:11:33;;;;;;;4.47;1.40;;;;;;;;;;5067293;28;20456;-59
2024/01/07 14:13:59;;;;;;;4.30;1.45;;;;;;;;;;5061757;28;20052;-59
2024/01/07 14:16:24;;;;;;;4.50;1.40;;;;;;;;;;5071263;28;20330;-59
2024/01/07 14:18:49;;;;;;;3.63;1.10;;;;;;;;;;5070882;28;20110;-58
2024/01/07 14:21:14;;;;;;;4.05;1.40;;;;;;;;;;5055320;28;20156;-58
2024/01/07 14:23:39;;;;;;;4.70;1.40;;;;;;;;;;5052736;28;20032;-58
2024/01/07 14:26:05;;;;;;;6.43;1.75;;;;;;;;;;5052924;28;20028;-58